Time;durP1;ratioP1;P1;durP2;ratioP2;P2;SDS_P1;SDS_P2;PMS_P1;PMS_P2;Temp;Humidity;BMP_temperature;BMP_pressure;BME280_temperature;BME280_humidity;BME280_pressure;Samples;Min_cycle;Max_cycle;Signal;HPM_P1;HPM_P2
2022/11/15 00:01:00;;;;;;;;;;;;;;;20.70;28.77;98614.59;5038557;28;2025;-75
2022/11/15 00:03:44;;;;;;;;;;;;;;;20.80;28.81;98613.66;5037643;28;921;-75
2022/11/15 00:06:28;;;;;;;;;;;;;;;21.06;28.68;98614.09;5036851;28;1418;-75
2022/11/15 00:09:12;;;;;;;;;;;;;;;20.50;29.25;98608.78;5038472;28;1049;-75
2022/11/15 00:11:56;;;;;;;;;;;;;;;20.51;29.30;98615.22;5038537;28;963;-75
2022/11/15 00:14:40;;;;;;;;;;;;;;;20.35;29.88;98615.00;5038733;28;930;-75
2022/11/15 00:17:23;;;;;;;;;;;;;;;20.93;29.05;98610.22;5037003;28;1486;-75
2022/11/15 00:20:08;;;;;;;;;;;;;;;21.18;28.79;98615.53;5038348;28;860;-75
2022/11/15 00:22:52;;;;;;;;;;;;;;;20.75;29.29;98608.47;5037178;28;1977;-75
2022/11/15 00:25:36;;;;;;;;;;;;;;;20.71;29.41;98599.22;5038479;28;920;-75
2022/11/15 00:28:20;;;;;;;;;;;;;;;20.76;29.18;98600.78;5036497;28;1470;-75
2022/11/15 00:31:04;;;;;;;;;;;;;;;20.88;29.22;98603.06;5038169;28;1044;-75
2022/11/15 00:33:48;;;;;;;;;;;;;;;21.05;28.97;98601.97;5038179;28;927;-75
2022/11/15 00:36:33;;;;;;;;;;;;;;;20.93;28.86;98598.91;5037259;28;1586;-76
2022/11/15 00:39:17;;;;;;;;;;;;;;;20.72;29.45;98589.50;5036991;28;948;-75
2022/11/15 00:42:01;;;;;;;;;;;;;;;20.43;29.88;98588.25;5037983;28;1963;-75
2022/11/15 00:44:45;;;;;;;;;;;;;;;21.18;28.75;98584.41;5035934;28;1673;-75
2022/11/15 00:47:29;;;;;;;;;;;;;;;20.96;29.12;98586.75;5037835;28;997;-75
2022/11/15 00:50:13;;;;;;;;;;;;;;;20.66;29.84;98582.72;5037868;28;873;-75
2022/11/15 00:52:57;;;;;;;;;;;;;;;20.62;30.04;98590.44;5036729;28;943;-75
2022/11/15 00:55:41;;;;;;;;;;;;;;;20.48;30.11;98590.66;5037052;28;1641;-75
2022/11/15 00:58:25;;;;;;;;;;;;;;;20.95;29.30;98585.16;5050754;28;962;-75
2022/11/15 01:01:10;;;;;;;;;;;;;;;20.98;29.30;98584.28;5049796;28;1981;-75
2022/11/15 01:03:54;;;;;;;;;;;;;;;21.13;28.95;98574.38;5037457;28;935;-75
2022/11/15 01:06:37;;;;;;;;;;;;;;;20.81;29.68;98570.00;5037445;28;971;-75
2022/11/15 01:09:21;;;;;;;;;;;;;;;20.57;29.74;98565.47;5048933;28;1542;-75
2022/11/15 01:12:05;;;;;;;;;;;;;;;20.92;29.87;98575.50;5037405;28;898;-75
2022/11/15 01:14:49;;;;;;;;;;;;;;;21.01;29.61;98566.47;5037235;28;900;-75
2022/11/15 01:17:33;;;;;;;;;;;;;;;20.92;29.52;98574.69;5034964;28;1482;-75
2022/11/15 01:20:18;;;;;;;;;;;;;;;20.94;29.42;98583.56;5035792;28;1043;-75
2022/11/15 01:23:02;;;;;;;;;;;;;;;20.67;29.78;98575.84;5035445;28;1910;-75
2022/11/15 01:25:46;;;;;;;;;;;;;;;20.85;29.77;98580.47;5050305;28;923;-75
2022/11/15 01:28:31;;;;;;;;;;;;;;;21.06;29.45;98591.47;5033344;28;1494;-76
2022/11/15 01:31:15;;;;;;;;;;;;;;;20.90;29.42;98588.47;5030254;28;896;-75
2022/11/15 01:33:59;;;;;;;;;;;;;;;20.70;30.17;98580.66;5030364;28;920;-75
2022/11/15 01:36:43;;;;;;;;;;;;;;;20.44;30.42;98572.91;5017071;28;983;-75
2022/11/15 01:39:27;;;;;;;;;;;;;;;21.14;29.66;98570.34;5023913;28;1638;-75
2022/11/15 01:42:12;;;;;;;;;;;;;;;21.20;29.43;98571.44;5036799;28;1965;-75
2022/11/15 01:44:56;;;;;;;;;;;;;;;20.97;29.79;98579.88;5036851;28;1047;-75
2022/11/15 01:47:40;;;;;;;;;;;;;;;20.64;30.04;98571.06;5035694;28;897;-75
2022/11/15 01:50:26;;;;;;;;;;;;;;;20.62;30.05;98570.66;5000194;28;1469;-75
2022/11/15 01:53:10;;;;;;;;;;;;;;;20.79;29.98;98566.00;5001008;28;944;-75
2022/11/15 01:55:54;;;;;;;;;;;;;;;20.87;30.16;98572.34;5000821;28;946;-75
2022/11/15 01:58:38;;;;;;;;;;;;;;;21.05;29.62;98555.91;5014516;28;1056;-75
2022/11/15 02:01:22;;;;;;;;;;;;;;;20.60;30.33;98553.31;5000652;28;1914;-75
2022/11/15 02:04:13;;;;;;;;;;;;;;;20.76;29.90;98550.66;5000596;28;1024;-75
2022/11/15 02:06:57;;;;;;;;;;;;;;;20.47;30.80;98560.78;5000532;28;1026;-75
2022/11/15 02:09:41;;;;;;;;;;;;;;;20.89;29.95;98558.59;5013781;28;1455;-75
2022/11/15 02:12:25;;;;;;;;;;;;;;;20.91;29.99;98561.78;5014428;28;1024;-75
2022/11/15 02:15:09;;;;;;;;;;;;;;;20.93;29.75;98559.31;5014346;28;1356;-75
2022/11/15 02:17:58;;;;;;;;;;;;;;;20.70;30.28;98554.41;5014486;28;897;-75
2022/11/15 02:20:47;;;;;;;;;;;;;;;20.48;30.37;98559.56;5020772;28;1743;-75
2022/11/15 02:23:49;;;;;;;;;;;;;;;20.79;30.00;98555.47;5035013;28;988;-75
2022/11/15 02:26:51;;;;;;;;;;;;;;;20.89;30.07;98547.28;5035168;28;948;-75
2022/11/15 02:29:41;;;;;;;;;;;;;;;20.75;29.94;98548.28;5035440;28;1541;-75
2022/11/15 02:32:37;;;;;;;;;;;;;;;20.61;30.31;98554.94;5036046;28;959;-75
2022/11/15 02:35:30;;;;;;;;;;;;;;;20.47;30.79;98552.31;5035089;28;1139;-75
2022/11/15 02:38:19;;;;;;;;;;;;;;;20.91;29.66;98550.47;5035811;28;954;-75
2022/11/15 02:41:04;;;;;;;;;;;;;;;21.05;29.68;98544.59;5035254;28;1965;-75
2022/11/15 02:43:57;;;;;;;;;;;;;;;20.61;30.25;98546.44;5034883;28;876;-75
2022/11/15 02:49:48;;;;;;;;;;;;;;;20.80;30.12;98550.63;5034586;28;1545;-75
2022/11/15 02:52:31;;;;;;;;;;;;;;;21.01;29.55;98532.53;5034672;28;944;-75
2022/11/15 02:55:34;;;;;;;;;;;;;;;21.07;29.60;98536.47;5034880;28;891;-75
2022/11/15 02:58:31;;;;;;;;;;;;;;;20.51;30.19;98534.06;5034897;28;924;-75
2022/11/15 03:01:24;;;;;;;;;;;;;;;20.27;30.81;98523.88;5034928;28;1961;-75
2022/11/15 03:04:15;;;;;;;;;;;;;;;20.84;29.92;98527.97;5048743;28;1104;-75
2022/11/15 03:07:05;;;;;;;;;;;;;;;20.85;29.84;98532.38;5035813;28;916;-75
2022/11/15 03:10:13;;;;;;;;;;;;;;;21.23;29.26;98533.78;5033749;28;1486;-75
2022/11/15 03:13:01;;;;;;;;;;;;;;;20.73;30.06;98520.44;4994006;28;993;-75
2022/11/15 03:15:48;;;;;;;;;;;;;;;20.64;29.98;98516.53;4994051;28;927;-75
2022/11/15 03:18:33;;;;;;;;;;;;;;;20.96;29.70;98524.53;4994124;28;1089;-75
2022/11/15 03:21:17;;;;;;;;;;;;;;;21.07;29.81;98519.50;4993235;28;1968;-75
2022/11/15 03:24:02;;;;;;;;;;;;;;;21.28;29.37;98513.47;4993994;28;998;-75
2022/11/15 03:26:47;;;;;;;;;;;;;;;20.82;29.70;98514.22;4994411;28;996;-75
2022/11/15 03:29:36;;;;;;;;;;;;;;;20.54;30.10;98518.28;4993268;28;1572;-75
2022/11/15 03:32:20;;;;;;;;;;;;;;;20.39;30.51;98514.03;4993506;28;1626;-75
2022/11/15 03:35:05;;;;;;;;;;;;;;;20.64;30.18;98508.84;4993956;28;1034;-75
2022/11/15 03:38:07;;;;;;;;;;;;;;;20.96;29.53;98507.56;4993905;28;1095;-75
2022/11/15 03:40:51;;;;;;;;;;;;;;;20.60;30.21;98498.81;4992762;28;1480;-75
2022/11/15 03:43:41;;;;;;;;;;;;;;;20.58;30.21;98498.44;4993843;28;1036;-75
2022/11/15 03:46:37;;;;;;;;;;;;;;;20.65;30.44;98493.47;4994109;28;1003;-75
2022/11/15 03:49:34;;;;;;;;;;;;;;;20.92;29.96;98492.66;4994272;28;1466;-75
2022/11/15 03:52:18;;;;;;;;;;;;;;;21.04;29.81;98492.88;5037538;28;890;-76
2022/11/15 03:55:03;;;;;;;;;;;;;;;20.77;29.77;98483.59;5037808;28;860;-75
2022/11/15 03:57:50;;;;;;;;;;;;;;;20.54;30.32;98481.53;5036179;28;1478;-75
2022/11/15 04:00:35;;;;;;;;;;;;;;;20.75;30.11;98484.03;5037668;28;984;-75
2022/11/15 04:03:18;;;;;;;;;;;;;;;20.86;30.21;98485.88;5037560;28;1973;-75
2022/11/15 04:06:03;;;;;;;;;;;;;;;21.00;29.69;98480.00;5038794;28;929;-75
2022/11/15 04:08:46;;;;;;;;;;;;;;;20.65;30.26;98482.16;5037248;28;1645;-75
2022/11/15 04:11:30;;;;;;;;;;;;;;;20.54;30.17;98479.50;5038403;28;848;-75
2022/11/15 04:14:14;;;;;;;;;;;;;;;20.62;30.53;98483.00;5050598;28;1482;-75
2022/11/15 04:16:58;;;;;;;;;;;;;;;20.88;29.91;98483.44;5038565;28;992;-75
2022/11/15 04:25:49;;;;;;;;;;;;;;;20.64;30.36;98486.22;5038321;28;1003;-75
2022/11/15 04:28:33;;;;;;;;;;;;;;;20.59;30.29;98483.88;5036856;28;1405;-75
2022/11/15 04:31:17;;;;;;;;;;;;;;;20.85;30.04;98487.13;5037277;28;908;-75
2022/11/15 04:34:01;;;;;;;;;;;;;;;21.04;29.75;98486.41;5038152;28;900;-75
2022/11/15 04:39:47;;;;;;;;;;;;;;;20.37;30.78;98485.38;5037286;28;1470;-75
2022/11/15 04:42:31;;;;;;;;;;;;;;;20.50;30.70;98477.94;5037948;28;1961;-75
2022/11/15 04:45:15;;;;;;;;;;;;;;;20.81;30.20;98482.31;5037884;28;846;-75
2022/11/15 04:47:59;;;;;;;;;;;;;;;21.02;29.74;98491.69;5037019;28;1734;-75
2022/11/15 04:50:43;;;;;;;;;;;;;;;20.81;29.86;98485.13;5036868;28;950;-75
2022/11/15 04:53:27;;;;;;;;;;;;;;;20.49;30.44;98479.19;5037705;28;882;-75
2022/11/15 04:56:11;;;;;;;;;;;;;;;20.54;30.27;98478.69;5037639;28;983;-75
2022/11/15 04:58:55;;;;;;;;;;;;;;;20.84;30.33;98482.69;5035680;28;1753;-75
2022/11/15 05:01:38;;;;;;;;;;;;;;;20.78;30.19;98471.88;5036675;28;1968;-76
2022/11/15 05:04:23;;;;;;;;;;;;;;;21.05;29.88;98473.88;5037457;28;886;-75
2022/11/15 05:07:06;;;;;;;;;;;;;;;21.02;29.70;98472.69;5037388;28;916;-75
2022/11/15 05:09:50;;;;;;;;;;;;;;;20.62;30.30;98471.69;5036401;28;894;-75
2022/11/15 05:12:34;;;;;;;;;;;;;;;20.54;30.36;98476.66;5036348;28;882;-75
2022/11/15 05:15:18;;;;;;;;;;;;;;;20.49;30.31;98473.53;5036543;28;902;-75
2022/11/15 05:18:02;;;;;;;;;;;;;;;21.08;29.66;98470.16;5036212;28;930;-75
2022/11/15 05:20:46;;;;;;;;;;;;;;;20.88;29.95;98472.09;5037161;28;873;-75
2022/11/15 05:23:30;;;;;;;;;;;;;;;20.90;29.71;98475.31;5036205;28;1966;-75
2022/11/15 05:26:14;;;;;;;;;;;;;;;20.58;30.30;98475.84;5036127;28;967;-75
2022/11/15 05:28:58;;;;;;;;;;;;;;;20.70;29.94;98478.84;5035920;28;856;-75
2022/11/15 05:31:42;;;;;;;;;;;;;;;20.67;30.39;98484.56;5035848;28;879;-76
2022/11/15 05:34:26;;;;;;;;;;;;;;;20.95;29.79;98484.13;5035772;28;1109;-75
2022/11/15 05:37:10;;;;;;;;;;;;;;;21.17;29.55;98484.56;5036754;28;908;-75
2022/11/15 05:39:54;;;;;;;;;;;;;;;20.60;30.21;98485.47;5037152;28;913;-75
2022/11/15 05:42:38;;;;;;;;;;;;;;;20.56;30.51;98479.06;5036637;28;1883;-75
2022/11/15 05:45:22;;;;;;;;;;;;;;;20.54;30.66;98481.53;5036679;28;974;-75
2022/11/15 05:48:06;;;;;;;;;;;;;;;20.84;30.09;98480.66;5036685;28;888;-76
2022/11/15 05:50:50;;;;;;;;;;;;;;;20.90;29.81;98486.63;5035435;28;962;-75
2022/11/15 05:53:35;;;;;;;;;;;;;;;20.63;30.17;98484.63;5021524;28;935;-75
2022/11/15 05:56:18;;;;;;;;;;;;;;;20.72;30.11;98486.91;5036480;28;1017;-75
2022/11/15 05:59:02;;;;;;;;;;;;;;;20.46;30.71;98480.00;5036336;28;887;-75
2022/11/15 06:01:47;;;;;;;;;;;;;;;20.81;29.95;98490.78;5035626;28;1967;-75
2022/11/15 06:04:31;;;;;;;;;;;;;;;21.00;29.98;98485.66;5036283;28;912;-75
2022/11/15 06:07:14;;;;;;;;;;;;;;;21.00;29.69;98491.31;5035343;28;768;-75
2022/11/15 06:09:58;;;;;;;;;;;;;;;20.58;30.35;98482.28;5035271;28;971;-75
2022/11/15 06:12:42;;;;;;;;;;;;;;;20.59;30.01;98481.06;5035155;28;953;-76
2022/11/15 06:15:26;;;;;;;;;;;;;;;20.97;29.78;98484.47;5020934;28;858;-75
2022/11/15 06:18:10;;;;;;;;;;;;;;;21.06;29.73;98493.22;5036045;28;853;-75
2022/11/15 06:20:57;;;;;;;;;;;;;;;20.77;30.12;98481.56;5030418;28;1200;-75
2022/11/15 06:23:41;;;;;;;;;;;;;;;20.37;30.68;98489.00;5025803;28;1379;-76
2022/11/15 06:26:25;;;;;;;;;;;;;;;20.57;30.36;98480.66;5026028;28;1092;-75
2022/11/15 06:29:09;;;;;;;;;;;;;;;20.79;30.20;98487.59;5025644;28;1279;-75
2022/11/15 06:31:53;;;;;;;;;;;;;;;20.86;30.32;98488.72;5024578;28;1127;-75
2022/11/15 06:34:37;;;;;;;;;;;;;;;21.12;29.62;98490.72;5025301;28;1159;-75
2022/11/15 06:37:21;;;;;;;;;;;;;;;20.72;30.06;98484.88;5026591;28;1175;-75
2022/11/15 06:40:05;;;;;;;;;;;;;;;20.48;30.59;98491.72;5026729;28;1036;-75
2022/11/15 06:42:49;;;;;;;;;;;;;;;20.24;30.91;98480.28;5026476;28;1902;-75
2022/11/15 06:45:33;;;;;;;;;;;;;;;20.75;30.52;98492.50;5028739;28;1014;-75
2022/11/15 06:48:17;;;;;;;;;;;;;;;20.96;30.15;98496.25;5010968;28;1140;-75
2022/11/15 06:51:02;;;;;;;;;;;;;;;20.87;29.97;98487.47;5026540;28;1114;-75
2022/11/15 06:53:46;;;;;;;;;;;;;;;20.50;30.43;98487.22;5022822;28;1086;-75
2022/11/15 06:56:29;;;;;;;;;;;;;;;20.40;30.72;98498.66;5024422;28;1115;-76
2022/11/15 06:59:13;;;;;;;;;;;;;;;20.84;30.51;98485.53;5034908;28;942;-75
2022/11/15 07:01:57;;;;;;;;;;;;;;;20.90;30.07;98492.28;5035612;28;1906;-75
2022/11/15 07:04:41;;;;;;;;;;;;;;;20.94;30.09;98487.38;5026262;28;1078;-75
2022/11/15 07:07:25;;;;;;;;;;;;;;;20.93;29.78;98488.59;5010578;28;1075;-75
2022/11/15 07:10:09;;;;;;;;;;;;;;;20.74;30.42;98479.59;5026303;28;1071;-75
2022/11/15 07:12:53;;;;;;;;;;;;;;;20.59;30.83;98489.53;5026162;28;1261;-75
2022/11/15 07:15:37;;;;;;;;;;;;;;;21.09;29.85;98485.94;5019554;28;1230;-74
2022/11/15 07:18:21;;;;;;;;;;;;;;;20.99;30.17;98479.22;5019472;28;1122;-75
2022/11/15 07:21:05;;;;;;;;;;;;;;;20.68;30.49;98489.81;5024014;28;1151;-75
2022/11/15 07:23:49;;;;;;;;;;;;;;;20.81;30.04;98485.13;5017097;28;1138;-75
2022/11/15 07:26:33;;;;;;;;;;;;;;;20.86;30.36;98483.06;5017509;28;897;-75
2022/11/15 07:29:17;;;;;;;;;;;;;;;20.78;30.42;98488.84;5018523;28;969;-76
2022/11/15 07:32:01;;;;;;;;;;;;;;;21.03;30.17;98494.06;5019441;28;955;-75
2022/11/15 07:34:46;;;;;;;;;;;;;;;20.76;30.39;98488.44;5019149;28;1145;-74
2022/11/15 07:37:30;;;;;;;;;;;;;;;20.53;30.86;98483.56;5019295;28;963;-75
2022/11/15 07:40:14;;;;;;;;;;;;;;;20.54;30.65;98487.19;5019238;28;993;-75
2022/11/15 07:43:05;;;;;;;;;;;;;;;21.10;29.81;98484.69;5004240;28;1981;-75
2022/11/15 07:45:48;;;;;;;;;;;;;;;21.08;30.03;98487.13;5018178;28;886;-76
2022/11/15 07:48:32;;;;;;;;;;;;;;;20.64;30.76;98474.91;5018101;28;905;-75
2022/11/15 07:51:16;;;;;;;;;;;;;;;20.64;30.61;98479.78;5050475;28;1065;-75
2022/11/15 07:54:00;;;;;;;;;;;;;;;20.60;30.83;98479.81;5058014;28;1007;-75
2022/11/15 07:56:45;;;;;;;;;;;;;;;20.96;30.10;98473.59;5058771;28;892;-74
2022/11/15 07:59:28;;;;;;;;;;;;;;;21.09;30.01;98477.44;5057685;28;1101;-74
2022/11/15 08:02:13;;;;;;;;;;;;;;;20.67;30.52;98471.22;5057591;28;1901;-74
2022/11/15 08:04:56;;;;;;;;;;;;;;;20.53;30.82;98479.94;5058611;28;914;-75
2022/11/15 08:07:40;;;;;;;;;;;;;;;20.69;30.92;98477.25;5057648;28;914;-74
2022/11/15 08:10:24;;;;;;;;;;;;;;;20.94;30.49;98478.91;5058720;28;975;-75
2022/11/15 08:13:09;;;;;;;;;;;;;;;20.98;30.27;98482.44;5057524;28;1042;-75
2022/11/15 08:16:05;;;;;;;;;;;;;;;21.05;30.34;98471.03;5036146;28;1042;-74
2022/11/15 08:18:49;;;;;;;;;;;;;;;20.54;31.07;98475.88;5036275;28;894;-75
2022/11/15 08:21:33;;;;;;;;;;;;;;;20.72;30.49;98467.91;5036128;28;1968;-75
2022/11/15 08:24:16;;;;;;;;;;;;;;;20.67;30.75;98470.41;5036012;28;1027;-74
2022/11/15 08:27:00;;;;;;;;;;;;;;;20.86;30.62;98475.38;5036166;28;974;-75
2022/11/15 08:29:44;;;;;;;;;;;;;;;21.09;30.37;98477.44;5036016;28;1179;-74
2022/11/15 08:32:28;;;;;;;;;;;;;;;20.86;30.62;98475.38;5036041;28;1026;-75
2022/11/15 08:35:12;;;;;;;;;;;;;;;20.79;30.81;98469.84;5036215;28;1049;-75
2022/11/15 08:37:56;;;;;;;;;;;;;;;20.72;31.06;98453.78;5007489;28;949;-74
2022/11/15 08:40:40;;;;;;;;;;;;;;;20.79;30.87;98464.19;5035636;28;943;-74
2022/11/15 08:43:23;;;;;;;;;;;;;;;20.88;30.75;98460.78;5007933;28;1919;-74
2022/11/15 08:46:08;;;;;;;;;;;;;;;21.02;30.58;98460.56;5042345;28;963;-75
2022/11/15 08:48:52;;;;;;;;;;;;;;;20.77;30.59;98455.31;5056901;28;925;-75
2022/11/15 08:51:36;;;;;;;;;;;;;;;20.43;31.55;98449.78;5057703;28;928;-75
2022/11/15 08:54:20;;;;;;;;;;;;;;;20.43;31.24;98446.94;5056648;28;936;-75
2022/11/15 08:57:04;;;;;;;;;;;;;;;20.94;30.65;98442.94;5057920;28;862;-74
2022/11/15 08:59:48;;;;;;;;;;;;;;;21.01;30.53;98442.00;5057562;28;870;-75
2022/11/15 09:02:32;;;;;;;;;;;;;;;21.17;30.09;98444.94;5056342;28;1910;-74
2022/11/15 09:05:18;;;;;;;;;;;;;;;20.88;30.77;98438.16;5057463;28;950;-75
2022/11/15 09:08:02;;;;;;;;;;;;;;;20.76;30.79;98426.25;5057353;28;967;-75
2022/11/15 09:10:46;;;;;;;;;;;;;;;20.86;30.60;98426.50;5056511;28;1024;-76
2022/11/15 09:13:29;;;;;;;;;;;;;;;21.38;29.74;98437.31;5056351;28;960;-74
2022/11/15 09:16:15;;;;;;;;;;;;;;;21.11;30.32;98429.69;5057305;28;965;-75
2022/11/15 09:18:59;;;;;;;;;;;;;;;20.80;30.59;98426.97;5057314;28;926;-75
2022/11/15 09:21:43;;;;;;;;;;;;;;;20.79;30.68;98425.38;5056098;28;1980;-75
2022/11/15 09:24:27;;;;;;;;;;;;;;;20.57;31.34;98426.16;5056093;28;967;-75
2022/11/15 09:27:11;;;;;;;;;;;;;;;20.70;31.28;98416.66;5057084;28;935;-75
2022/11/15 09:29:55;;;;;;;;;;;;;;;21.02;30.47;98415.31;5041864;28;889;-75
2022/11/15 09:32:39;;;;;;;;;;;;;;;20.82;30.89;98418.06;5055918;28;850;-75
2022/11/15 09:35:23;;;;;;;;;;;;;;;20.54;31.32;98416.50;5057287;28;1060;-75
2022/11/15 09:38:07;;;;;;;;;;;;;;;20.42;31.70;98411.44;5056654;28;881;-75
2022/11/15 09:40:52;;;;;;;;;;;;;;;20.70;31.44;98411.00;5034522;28;1029;-75
2022/11/15 09:43:39;;;;;;;;;;;;;;;21.08;30.42;98402.25;5020675;28;1910;-75
2022/11/15 09:46:36;;;;;;;;;;;;;;;21.25;30.12;98406.81;5035063;28;1127;-75
2022/11/15 09:49:20;;;;;;;;;;;;;;;20.79;30.90;98394.28;5033959;28;1098;-75
2022/11/15 09:51:53;;;;;;;;;;;;;;;20.53;31.44;98401.56;5019114;28;953;-75
2022/11/15 09:54:21;;;;;;;;;;;;;;;21.01;30.84;98393.91;5035024;28;1025;-75
2022/11/15 09:56:47;;;;;;;;;;;;;;;21.08;30.51;98388.09;5018061;28;1097;-75
2022/11/15 09:59:31;;;;;;;;;;;;;;;21.06;30.42;98393.41;5002325;28;1010;-75
2022/11/15 10:01:59;;;;;;;;;;;;;;;20.84;30.77;98395.03;5034448;28;1984;-75
2022/11/15 10:04:25;;;;;;;;;;;;;;;20.85;30.42;98382.47;5034552;28;932;-75
2022/11/15 10:07:09;;;;;;;;;;;;;;;20.81;30.46;98386.16;5001984;28;1001;-75
2022/11/15 10:09:53;;;;;;;;;;;;;;;20.83;31.07;98379.25;5034377;28;980;-75
2022/11/15 10:12:18;;;;;;;;;;;;;;;21.02;30.53;98367.22;5047686;28;941;-75
2022/11/15 10:14:45;;;;;;;;;;;;;;;20.87;30.57;98369.50;5055500;28;989;-75
2022/11/15 10:17:22;;;;;;;;;;;;;;;20.57;31.09;98366.78;5054381;28;2120;-75
2022/11/15 10:20:00;;;;;;;;;;;;;;;20.61;30.82;98362.66;5056464;28;956;-75
2022/11/15 10:22:38;;;;;;;;;;;;;;;20.36;31.23;98357.38;5056168;28;1890;-75
2022/11/15 10:25:12;;;;;;;;;;;;;;;20.90;31.06;98356.53;5055080;28;1020;-75
2022/11/15 10:27:38;;;;;;;;;;;;;;;20.73;31.08;98347.94;4998028;28;2426;-75
2022/11/15 10:30:04;;;;;;;;;;;;;;;21.10;30.50;98340.38;4998309;28;922;-75
2022/11/15 10:32:29;;;;;;;;;;;;;;;20.71;31.12;98339.06;5014644;28;1015;-75
2022/11/15 10:34:55;;;;;;;;;;;;;;;20.55;31.27;98341.78;4997959;28;1205;-75
2022/11/15 10:37:30;;;;;;;;;;;;;;;20.61;31.15;98342.88;4998098;28;995;-75
2022/11/15 10:40:15;;;;;;;;;;;;;;;20.93;31.02;98344.34;4997962;28;1017;-75
2022/11/15 10:42:41;;;;;;;;;;;;;;;20.93;30.95;98338.69;5014219;28;1988;-75
2022/11/15 10:45:22;;;;;;;;;;;;;;;20.99;30.72;98325.66;5014287;28;928;-75
2022/11/15 10:47:47;;;;;;;;;;;;;;;20.65;31.12;98335.13;5014398;28;1033;-75
2022/11/15 10:50:27;;;;;;;;;;;;;;;20.73;30.91;98330.97;4998041;28;971;-75
2022/11/15 10:52:52;;;;;;;;;;;;;;;20.61;31.16;98319.47;5014047;28;802;-76
2022/11/15 10:55:21;;;;;;;;;;;;;;;20.91;30.95;98318.53;4997639;28;775;-75
2022/11/15 10:57:59;;;;;;;;;;;;;;;20.96;31.08;98315.19;5004385;28;911;-75
2022/11/15 11:40:16;;;;;;;;;;;;;;;20.99;30.91;98258.56;5037158;28;1027;-75
2022/11/15 15:24:46;;;;;;;;;;;;;;;21.11;30.95;98042.06;5036164;28;626;-74
2022/11/15 15:27:11;;;;;;;;;;;;;;;20.72;31.02;98032.44;4985993;28;1428;-75
2022/11/15 15:29:37;;;;;;;;;;;;;;;20.83;30.70;98039.88;5001951;28;882;-74
2022/11/15 15:32:02;;;;;;;;;;;;;;;20.60;31.14;98027.47;5002002;28;1399;-75
2022/11/15 15:34:28;;;;;;;;;;;;;;;20.83;31.00;98040.72;5018308;28;878;-75
2022/11/15 15:37:12;;;;;;;;;;;;;;;21.01;30.99;98035.41;5018208;28;790;-74
2022/11/15 15:39:37;;;;;;;;;;;;;;;21.14;30.58;98038.38;5035590;28;846;-74
2022/11/15 15:42:03;;;;;;;;;;;;;;;20.70;31.06;98034.13;5017965;28;1898;-74
2022/11/15 15:44:29;;;;;;;;;;;;;;;20.72;31.06;98040.94;5013882;28;906;-75
2022/11/15 15:46:54;;;;;;;;;;;;;;;20.62;31.18;98036.31;5014803;28;968;-75
2022/11/15 15:49:20;;;;;;;;;;;;;;;21.12;30.67;98029.50;5017659;28;926;-75
2022/11/15 15:51:45;;;;;;;;;;;;;;;21.11;30.74;98032.78;5017315;28;699;-75
2022/11/15 15:54:11;;;;;;;;;;;;;;;20.93;30.66;98039.63;5017844;28;759;-75
2022/11/15 15:56:36;;;;;;;;;;;;;;;20.91;30.55;98027.19;4997431;28;1242;-74
2022/11/15 15:59:01;;;;;;;;;;;;;;;20.64;30.73;98016.09;4997483;28;1702;-74
2022/11/15 16:01:27;;;;;;;;;;;;;;;20.73;30.76;98019.91;4997794;28;789;-75
2022/11/15 16:03:52;;;;;;;;;;;;;;;20.94;31.36;98017.84;4981085;28;1910;-75
2022/11/15 16:06:38;;;;;;;;;;;;;;;21.21;30.79;98021.19;4997749;28;773;-75
2022/11/15 16:09:03;;;;;;;;;;;;;;;21.18;30.36;98016.41;4974492;28;953;-75
2022/11/15 16:11:29;;;;;;;;;;;;;;;20.89;30.72;98019.16;4958649;29;795;-75
2022/11/15 16:13:54;;;;;;;;;;;;;;;20.85;31.03;98014.81;4958497;29;907;-75
2022/11/15 16:16:19;;;;;;;;;;;;;;;20.50;31.59;98005.91;4988799;28;967;-74
2022/11/15 16:18:45;;;;;;;;;;;;;;;21.05;30.92;98012.72;4961764;28;923;-75
2022/11/15 16:21:11;;;;;;;;;;;;;;;21.28;30.29;98009.69;5011037;28;1094;-75
2022/11/15 16:23:36;;;;;;;;;;;;;;;20.66;31.04;98008.75;5017100;28;1968;-75
2022/11/15 16:26:03;;;;;;;;;;;;;;;20.91;31.01;98019.50;5017123;28;806;-75
2022/11/15 16:28:29;;;;;;;;;;;;;;;20.92;30.55;98023.13;5016961;28;987;-74
2022/11/15 16:31:04;;;;;;;;;;;;;;;20.63;31.14;98006.81;5000691;28;791;-74
2022/11/15 16:33:30;;;;;;;;;;;;;;;21.18;30.54;98016.41;5021887;28;1223;-74
2022/11/15 16:35:55;;;;;;;;;;;;;;;21.36;30.09;98003.91;5036435;28;829;-74
2022/11/15 16:38:20;;;;;;;;;;;;;;;20.89;30.64;98009.88;5036313;28;782;-74
2022/11/15 16:40:46;;;;;;;;;;;;;;;20.84;30.72;97999.09;5053824;28;889;-74
2022/11/15 16:43:11;;;;;;;;;;;;;;;20.67;30.98;98004.69;5058061;28;1906;-74
2022/11/15 16:45:37;;;;;;;;;;;;;;;21.01;30.70;97995.81;5058382;28;973;-74
2022/11/15 16:48:02;;;;;;;;;;;;;;;21.19;30.35;97989.75;5058766;28;758;-74
2022/11/15 16:50:29;;;;;;;;;;;;;;;21.04;30.62;97994.16;5056888;28;1222;-74
2022/11/15 16:52:55;;;;;;;;;;;;;;;20.77;31.05;97997.19;5057070;28;790;-75
2022/11/15 16:55:22;;;;;;;;;;;;;;;20.89;30.59;97992.91;5057344;28;865;-75
2022/11/15 16:57:47;;;;;;;;;;;;;;;20.80;30.68;97996.34;5057627;28;1053;-74
2022/11/15 17:00:16;;;;;;;;;;;;;;;21.48;30.17;97989.03;5058127;28;818;-74
2022/11/15 17:02:43;;;;;;;;;;;;;;;21.18;30.30;97993.78;5058066;28;1979;-75
2022/11/15 17:05:08;;;;;;;;;;;;;;;20.94;30.63;97989.56;5056596;28;877;-75
2022/11/15 17:07:33;;;;;;;;;;;;;;;20.64;31.23;97994.28;5058145;28;891;-74
2022/11/15 17:09:59;;;;;;;;;;;;;;;20.67;31.07;97992.59;5058093;28;992;-75
2022/11/15 17:12:24;;;;;;;;;;;;;;;20.84;30.65;97999.09;5058032;28;924;-75
2022/11/15 17:14:50;;;;;;;;;;;;;;;20.78;30.61;97988.31;5031866;28;1230;-74
2022/11/15 17:17:15;;;;;;;;;;;;;;;20.94;31.04;97998.03;5037930;28;879;-74
2022/11/15 17:19:41;;;;;;;;;;;;;;;20.99;30.68;97991.84;5033131;28;1067;-74
2022/11/15 17:22:06;;;;;;;;;;;;;;;20.59;31.17;97986.31;5017892;28;1894;-75
2022/11/15 17:24:32;;;;;;;;;;;;;;;20.78;31.03;97984.69;5017912;28;974;-74
2022/11/15 17:26:57;;;;;;;;;;;;;;;20.72;31.12;97984.38;5017601;28;897;-75
2022/11/15 17:29:23;;;;;;;;;;;;;;;21.02;30.84;97966.28;5017669;28;875;-74
2022/11/15 17:31:48;;;;;;;;;;;;;;;20.79;30.99;97970.09;5018051;28;904;-74
2022/11/15 17:34:14;;;;;;;;;;;;;;;21.30;30.19;97972.50;5017938;28;926;-74
2022/11/15 17:36:39;;;;;;;;;;;;;;;20.96;30.35;97970.09;5018192;28;915;-75
2022/11/15 17:39:05;;;;;;;;;;;;;;;20.66;30.64;97962.72;5017750;28;931;-75
2022/11/15 17:41:30;;;;;;;;;;;;;;;20.91;30.08;97962.94;5017713;28;1190;-75
2022/11/15 17:43:57;;;;;;;;;;;;;;;21.03;30.64;97958.59;5017634;28;1979;-75
2022/11/15 17:46:22;;;;;;;;;;;;;;;21.10;30.75;97947.13;5017930;28;843;-74
2022/11/15 17:48:48;;;;;;;;;;;;;;;21.17;30.22;97949.75;5017554;28;876;-75
2022/11/15 17:51:14;;;;;;;;;;;;;;;20.84;30.43;97951.81;5017788;28;864;-74
2022/11/15 17:53:40;;;;;;;;;;;;;;;20.92;30.10;97949.59;5017223;28;877;-75
2022/11/15 17:56:07;;;;;;;;;;;;;;;20.71;30.52;97948.88;5017390;28;838;-74
2022/11/15 17:58:32;;;;;;;;;;;;;;;20.99;30.93;97935.28;4999365;28;822;-75
2022/11/15 18:01:17;;;;;;;;;;;;;;;21.18;30.11;97937.19;5017168;28;1171;-75
2022/11/15 18:03:43;;;;;;;;;;;;;;;21.12;30.38;97938.97;5016911;28;1985;-76
2022/11/15 18:06:08;;;;;;;;;;;;;;;20.79;30.99;97933.31;5016929;28;845;-75
2022/11/15 18:08:34;;;;;;;;;;;;;;;20.64;30.62;97932.06;5017137;28;929;-76
2022/11/15 18:11:03;;;;;;;;;;;;;;;20.75;30.95;97932.63;5016350;28;791;-75
2022/11/15 18:13:28;;;;;;;;;;;;;;;21.15;30.47;97932.44;5017323;28;822;-75
2022/11/15 18:16:01;;;;;;;;;;;;;;;21.19;30.05;97927.47;5017544;28;763;-75
2022/11/15 18:18:27;;;;;;;;;;;;;;;20.80;30.50;97929.25;5016954;28;786;-75
2022/11/15 18:21:12;;;;;;;;;;;;;;;20.72;30.38;97927.81;5046023;28;1133;-75
2022/11/15 18:23:37;;;;;;;;;;;;;;;20.66;30.84;97938.06;5004824;28;1971;-75
2022/11/15 18:26:03;;;;;;;;;;;;;;;21.02;30.44;97940.03;5056719;28;834;-75
2022/11/15 18:28:39;;;;;;;;;;;;;;;21.14;30.13;97933.69;5039120;28;798;-76
2022/11/15 18:31:12;;;;;;;;;;;;;;;21.03;30.04;97925.44;5038528;28;852;-76
2022/11/15 18:33:38;;;;;;;;;;;;;;;20.64;30.44;97932.06;5056226;28;944;-76
2022/11/15 18:36:04;;;;;;;;;;;;;;;20.71;30.13;97931.09;5056174;28;814;-76
2022/11/15 18:38:29;;;;;;;;;;;;;;;20.58;30.49;97933.84;5056388;28;777;-76
2022/11/15 18:41:03;;;;;;;;;;;;;;;20.84;30.83;97934.03;5056330;28;770;-76